Vesper, Wisconsin
Current Conditions -  °F | °C
As of 3:54 PM on Wednesday 22 Oct 2014 (Local Time) from KISW Reporting Station
Clear Clear  
Wind Chill: 57°   Ceiling: Unl
Heat Index: 57°   Visibility: 10mi
Dew Point: 35°   Wind: 9mph
Humidity: 44%   Direction: 150°SSE
Pressure: 30.24"   Gusts: NA
Location:  44.48°N, 89.96°W
Report Text: KISW 222054Z AUTO 15008KT 10SM CLR 14/02 A3024 RMK AO2 SLP250 T01390017 56025 $
Loading
Personal Weather Stations






























Interactive Weather Map
Tropical Storm Tracking
New forecast layout! Learn more

10-Day Weather Forecast

Advertisements
Track Severe Weather on mobile